sensor_id;sensor_type;location;lat;lon;timestamp;temperature;humidity
44886;DHT22;36669;51.428;21.162;2023-06-14T00:00:18;11.80;99.90
44886;DHT22;36669;51.428;21.162;2023-06-14T00:02:44;11.80;99.90
44886;DHT22;36669;51.428;21.162;2023-06-14T00:05:09;11.80;99.90
44886;DHT22;36669;51.428;21.162;2023-06-14T00:07:41;11.80;99.90
44886;DHT22;36669;51.428;21.162;2023-06-14T00:10:13;11.80;99.90
44886;DHT22;36669;51.428;21.162;2023-06-14T00:12:39;11.80;99.90
44886;DHT22;36669;51.428;21.162;2023-06-14T00:15:06;11.70;99.90
44886;DHT22;36669;51.428;21.162;2023-06-14T00:17:32;11.70;99.90
44886;DHT22;36669;51.428;21.162;2023-06-14T00:19:59;11.70;99.90
44886;DHT22;36669;51.428;21.162;2023-06-14T00:22:25;11.70;99.90
44886;DHT22;36669;51.428;21.162;2023-06-14T00:24:52;11.70;99.90
44886;DHT22;36669;51.428;21.162;2023-06-14T00:27:17;11.70;99.90
44886;DHT22;36669;51.428;21.162;2023-06-14T00:29:43;11.70;99.90
44886;DHT22;36669;51.428;21.162;2023-06-14T00:32:09;11.70;99.90
44886;DHT22;36669;51.428;21.162;2023-06-14T00:34:34;11.70;99.90
44886;DHT22;36669;51.428;21.162;2023-06-14T00:37:00;11.70;99.90
44886;DHT22;36669;51.428;21.162;2023-06-14T00:39:26;11.70;99.90
44886;DHT22;36669;51.428;21.162;2023-06-14T00:41:51;11.70;99.90
44886;DHT22;36669;51.428;21.162;2023-06-14T00:44:17;11.60;99.90
44886;DHT22;36669;51.428;21.162;2023-06-14T00:46:44;11.60;99.90
44886;DHT22;36669;51.428;21.162;2023-06-14T00:49:11;11.60;99.90
44886;DHT22;36669;51.428;21.162;2023-06-14T00:51:37;11.60;99.90
44886;DHT22;36669;51.428;21.162;2023-06-14T00:54:03;11.60;99.90
44886;DHT22;36669;51.428;21.162;2023-06-14T00:56:28;11.60;99.90
44886;DHT22;36669;51.428;21.162;2023-06-14T00:58:55;11.60;99.90
44886;DHT22;36669;51.428;21.162;2023-06-14T01:01:21;11.70;99.90
44886;DHT22;36669;51.428;21.162;2023-06-14T01:03:47;11.70;99.90
44886;DHT22;36669;51.428;21.162;2023-06-14T01:06:33;11.70;99.90
44886;DHT22;36669;51.428;21.162;2023-06-14T01:11:32;11.70;99.90
44886;DHT22;36669;51.428;21.162;2023-06-14T01:14:00;11.70;99.90
44886;DHT22;36669;51.428;21.162;2023-06-14T01:16:27;11.70;99.90
44886;DHT22;36669;51.428;21.162;2023-06-14T01:18:54;11.70;99.90
44886;DHT22;36669;51.428;21.162;2023-06-14T01:21:25;11.60;99.90
44886;DHT22;36669;51.428;21.162;2023-06-14T01:23:52;11.60;99.90
44886;DHT22;36669;51.428;21.162;2023-06-14T01:26:21;11.60;99.90
44886;DHT22;36669;51.428;21.162;2023-06-14T01:28:48;11.60;99.90
44886;DHT22;36669;51.428;21.162;2023-06-14T01:31:18;11.70;99.90
44886;DHT22;36669;51.428;21.162;2023-06-14T01:33:45;11.60;99.90
44886;DHT22;36669;51.428;21.162;2023-06-14T01:36:12;11.60;99.90
44886;DHT22;36669;51.428;21.162;2023-06-14T01:38:39;11.70;99.90
44886;DHT22;36669;51.428;21.162;2023-06-14T01:41:06;11.70;99.90
44886;DHT22;36669;51.428;21.162;2023-06-14T01:43:33;11.70;99.90
44886;DHT22;36669;51.428;21.162;2023-06-14T01:46:00;11.70;99.90
44886;DHT22;36669;51.428;21.162;2023-06-14T01:48:26;11.70;99.90
44886;DHT22;36669;51.428;21.162;2023-06-14T01:50:52;11.70;99.90
44886;DHT22;36669;51.428;21.162;2023-06-14T01:53:18;11.70;99.90
44886;DHT22;36669;51.428;21.162;2023-06-14T01:55:44;11.70;99.90
44886;DHT22;36669;51.428;21.162;2023-06-14T01:58:10;11.60;99.90
44886;DHT22;36669;51.428;21.162;2023-06-14T02:00:36;11.60;99.90
44886;DHT22;36669;51.428;21.162;2023-06-14T02:03:02;11.60;99.90
44886;DHT22;36669;51.428;21.162;2023-06-14T02:05:29;11.60;99.90
44886;DHT22;36669;51.428;21.162;2023-06-14T02:07:55;11.60;99.90
44886;DHT22;36669;51.428;21.162;2023-06-14T02:10:21;11.60;99.90
44886;DHT22;36669;51.428;21.162;2023-06-14T02:12:47;11.60;99.90
44886;DHT22;36669;51.428;21.162;2023-06-14T02:15:13;11.60;99.90
44886;DHT22;36669;51.428;21.162;2023-06-14T02:17:48;11.60;99.90
44886;DHT22;36669;51.428;21.162;2023-06-14T02:20:15;11.60;99.90
44886;DHT22;36669;51.428;21.162;2023-06-14T02:22:41;11.60;99.90
44886;DHT22;36669;51.428;21.162;2023-06-14T02:25:07;11.60;99.90
44886;DHT22;36669;51.428;21.162;2023-06-14T02:27:33;11.60;99.90
44886;DHT22;36669;51.428;21.162;2023-06-14T02:29:59;11.60;99.90
44886;DHT22;36669;51.428;21.162;2023-06-14T02:32:26;11.60;99.90
44886;DHT22;36669;51.428;21.162;2023-06-14T02:34:53;11.60;99.90
44886;DHT22;36669;51.428;21.162;2023-06-14T02:37:20;11.60;99.90
44886;DHT22;36669;51.428;21.162;2023-06-14T02:39:45;11.60;99.90
44886;DHT22;36669;51.428;21.162;2023-06-14T02:42:11;11.60;99.90
44886;DHT22;36669;51.428;21.162;2023-06-14T02:44:37;11.60;99.90
44886;DHT22;36669;51.428;21.162;2023-06-14T02:47:04;11.70;99.90
44886;DHT22;36669;51.428;21.162;2023-06-14T02:49:30;11.70;99.90
44886;DHT22;36669;51.428;21.162;2023-06-14T02:51:56;11.70;99.90
44886;DHT22;36669;51.428;21.162;2023-06-14T02:54:21;11.70;99.90
44886;DHT22;36669;51.428;21.162;2023-06-14T02:56:47;11.70;99.90
44886;DHT22;36669;51.428;21.162;2023-06-14T02:59:12;11.80;99.90
44886;DHT22;36669;51.428;21.162;2023-06-14T03:01:39;11.80;99.90
44886;DHT22;36669;51.428;21.162;2023-06-14T03:04:07;11.80;99.90
44886;DHT22;36669;51.428;21.162;2023-06-14T03:06:33;11.90;99.90
44886;DHT22;36669;51.428;21.162;2023-06-14T03:08:59;11.90;99.90
44886;DHT22;36669;51.428;21.162;2023-06-14T03:11:27;11.90;99.90
44886;DHT22;36669;51.428;21.162;2023-06-14T03:13:53;11.90;99.90
44886;DHT22;36669;51.428;21.162;2023-06-14T03:16:19;12.00;99.90
44886;DHT22;36669;51.428;21.162;2023-06-14T03:18:50;12.00;99.90
44886;DHT22;36669;51.428;21.162;2023-06-14T03:21:16;12.00;99.90
44886;DHT22;36669;51.428;21.162;2023-06-14T03:23:43;12.10;99.90
44886;DHT22;36669;51.428;21.162;2023-06-14T03:26:09;12.10;99.90
44886;DHT22;36669;51.428;21.162;2023-06-14T03:28:38;12.10;99.90
44886;DHT22;36669;51.428;21.162;2023-06-14T03:31:04;12.10;99.90
44886;DHT22;36669;51.428;21.162;2023-06-14T03:33:29;12.10;99.90
44886;DHT22;36669;51.428;21.162;2023-06-14T03:35:55;12.20;99.90
44886;DHT22;36669;51.428;21.162;2023-06-14T03:38:21;12.20;99.90
44886;DHT22;36669;51.428;21.162;2023-06-14T03:40:47;12.30;99.90
44886;DHT22;36669;51.428;21.162;2023-06-14T03:43:13;12.20;99.90
44886;DHT22;36669;51.428;21.162;2023-06-14T03:45:38;12.30;99.90
44886;DHT22;36669;51.428;21.162;2023-06-14T03:48:04;12.40;99.90
44886;DHT22;36669;51.428;21.162;2023-06-14T03:50:32;12.40;99.90
44886;DHT22;36669;51.428;21.162;2023-06-14T03:52:58;12.40;99.90
44886;DHT22;36669;51.428;21.162;2023-06-14T03:55:23;12.50;99.90
44886;DHT22;36669;51.428;21.162;2023-06-14T03:57:51;12.50;99.90
44886;DHT22;36669;51.428;21.162;2023-06-14T04:00:17;12.50;99.90
44886;DHT22;36669;51.428;21.162;2023-06-14T04:02:43;12.60;99.90
44886;DHT22;36669;51.428;21.162;2023-06-14T04:05:10;12.60;99.90
44886;DHT22;36669;51.428;21.162;2023-06-14T04:07:36;12.60;99.90
44886;DHT22;36669;51.428;21.162;2023-06-14T04:10:14;12.60;99.90
44886;DHT22;36669;51.428;21.162;2023-06-14T04:12:39;12.70;99.90
44886;DHT22;36669;51.428;21.162;2023-06-14T04:15:06;12.70;99.90
44886;DHT22;36669;51.428;21.162;2023-06-14T04:17:33;12.80;99.90
44886;DHT22;36669;51.428;21.162;2023-06-14T04:19:59;12.80;99.90
44886;DHT22;36669;51.428;21.162;2023-06-14T04:22:26;12.90;99.90
44886;DHT22;36669;51.428;21.162;2023-06-14T04:24:55;12.90;99.90
44886;DHT22;36669;51.428;21.162;2023-06-14T04:27:25;13.00;99.90
44886;DHT22;36669;51.428;21.162;2023-06-14T04:29:55;13.00;99.90
44886;DHT22;36669;51.428;21.162;2023-06-14T04:32:28;13.00;99.90
44886;DHT22;36669;51.428;21.162;2023-06-14T04:34:58;13.10;99.90
44886;DHT22;36669;51.428;21.162;2023-06-14T04:37:24;13.10;99.90
44886;DHT22;36669;51.428;21.162;2023-06-14T04:39:54;13.10;99.90
44886;DHT22;36669;51.428;21.162;2023-06-14T04:42:21;13.20;99.90
44886;DHT22;36669;51.428;21.162;2023-06-14T04:44:50;13.20;99.90
44886;DHT22;36669;51.428;21.162;2023-06-14T04:47:16;13.20;99.90
44886;DHT22;36669;51.428;21.162;2023-06-14T04:49:42;13.20;99.90
44886;DHT22;36669;51.428;21.162;2023-06-14T04:52:08;13.30;99.90
44886;DHT22;36669;51.428;21.162;2023-06-14T04:54:36;13.30;99.90
44886;DHT22;36669;51.428;21.162;2023-06-14T04:57:07;13.40;99.90
44886;DHT22;36669;51.428;21.162;2023-06-14T04:59:33;13.40;99.90
44886;DHT22;36669;51.428;21.162;2023-06-14T05:02:01;13.50;99.90
44886;DHT22;36669;51.428;21.162;2023-06-14T05:04:26;13.50;99.90
44886;DHT22;36669;51.428;21.162;2023-06-14T05:06:53;13.50;99.90
44886;DHT22;36669;51.428;21.162;2023-06-14T05:09:20;13.50;99.90
44886;DHT22;36669;51.428;21.162;2023-06-14T05:11:46;13.60;99.90
44886;DHT22;36669;51.428;21.162;2023-06-14T05:14:13;13.70;99.90
44886;DHT22;36669;51.428;21.162;2023-06-14T05:16:39;13.80;99.90
44886;DHT22;36669;51.428;21.162;2023-06-14T05:19:05;13.80;99.90
44886;DHT22;36669;51.428;21.162;2023-06-14T05:21:31;13.90;99.90
44886;DHT22;36669;51.428;21.162;2023-06-14T05:23:59;14.00;99.90
44886;DHT22;36669;51.428;21.162;2023-06-14T05:26:25;14.00;99.90
44886;DHT22;36669;51.428;21.162;2023-06-14T05:28:54;14.10;99.90
44886;DHT22;36669;51.428;21.162;2023-06-14T05:31:22;14.20;99.90
44886;DHT22;36669;51.428;21.162;2023-06-14T05:33:48;14.20;99.90
44886;DHT22;36669;51.428;21.162;2023-06-14T05:36:13;14.20;99.90
44886;DHT22;36669;51.428;21.162;2023-06-14T05:38:39;14.30;99.90
44886;DHT22;36669;51.428;21.162;2023-06-14T05:41:05;14.30;99.90
44886;DHT22;36669;51.428;21.162;2023-06-14T05:43:30;14.30;99.90
44886;DHT22;36669;51.428;21.162;2023-06-14T05:45:57;14.40;99.90
44886;DHT22;36669;51.428;21.162;2023-06-14T05:48:22;14.40;99.90
44886;DHT22;36669;51.428;21.162;2023-06-14T05:50:48;14.50;99.90
44886;DHT22;36669;51.428;21.162;2023-06-14T05:53:14;14.60;99.90
44886;DHT22;36669;51.428;21.162;2023-06-14T05:55:39;14.70;99.90
44886;DHT22;36669;51.428;21.162;2023-06-14T05:58:05;14.90;99.90
44886;DHT22;36669;51.428;21.162;2023-06-14T06:00:31;15.00;99.90
44886;DHT22;36669;51.428;21.162;2023-06-14T06:02:57;15.00;99.90
44886;DHT22;36669;51.428;21.162;2023-06-14T06:05:23;15.10;99.90
44886;DHT22;36669;51.428;21.162;2023-06-14T06:07:49;15.20;99.90
44886;DHT22;36669;51.428;21.162;2023-06-14T06:10:15;15.30;99.90
44886;DHT22;36669;51.428;21.162;2023-06-14T06:12:43;15.40;99.90
44886;DHT22;36669;51.428;21.162;2023-06-14T06:15:09;15.60;99.90
44886;DHT22;36669;51.428;21.162;2023-06-14T06:17:39;15.70;99.90
44886;DHT22;36669;51.428;21.162;2023-06-14T06:20:05;15.80;99.90
44886;DHT22;36669;51.428;21.162;2023-06-14T06:22:33;15.80;99.90
44886;DHT22;36669;51.428;21.162;2023-06-14T06:24:59;15.80;99.90
44886;DHT22;36669;51.428;21.162;2023-06-14T06:27:25;15.90;99.90
44886;DHT22;36669;51.428;21.162;2023-06-14T06:29:51;16.00;99.90
44886;DHT22;36669;51.428;21.162;2023-06-14T06:32:17;16.00;99.90
44886;DHT22;36669;51.428;21.162;2023-06-14T06:34:43;16.10;99.90
44886;DHT22;36669;51.428;21.162;2023-06-14T06:37:08;16.10;99.90
44886;DHT22;36669;51.428;21.162;2023-06-14T06:39:34;16.10;99.90
44886;DHT22;36669;51.428;21.162;2023-06-14T06:42:00;16.10;99.90
44886;DHT22;36669;51.428;21.162;2023-06-14T06:44:26;16.10;99.90
44886;DHT22;36669;51.428;21.162;2023-06-14T06:46:52;16.10;99.90
44886;DHT22;36669;51.428;21.162;2023-06-14T06:49:17;16.20;99.90
44886;DHT22;36669;51.428;21.162;2023-06-14T06:51:43;16.20;99.90
44886;DHT22;36669;51.428;21.162;2023-06-14T06:54:10;16.20;99.90
44886;DHT22;36669;51.428;21.162;2023-06-14T06:56:36;16.20;99.90
44886;DHT22;36669;51.428;21.162;2023-06-14T06:59:01;16.30;99.90
44886;DHT22;36669;51.428;21.162;2023-06-14T07:01:28;16.30;99.90
44886;DHT22;36669;51.428;21.162;2023-06-14T07:03:55;16.30;99.90
44886;DHT22;36669;51.428;21.162;2023-06-14T07:06:21;16.30;99.90
44886;DHT22;36669;51.428;21.162;2023-06-14T07:08:47;16.30;99.90
44886;DHT22;36669;51.428;21.162;2023-06-14T07:11:15;16.40;99.90
44886;DHT22;36669;51.428;21.162;2023-06-14T07:13:40;16.40;99.90
44886;DHT22;36669;51.428;21.162;2023-06-14T07:16:06;16.40;99.90
44886;DHT22;36669;51.428;21.162;2023-06-14T07:18:32;16.50;99.90
44886;DHT22;36669;51.428;21.162;2023-06-14T07:20:57;16.50;99.90
44886;DHT22;36669;51.428;21.162;2023-06-14T07:23:23;16.60;99.90
44886;DHT22;36669;51.428;21.162;2023-06-14T07:25:49;16.50;99.90
44886;DHT22;36669;51.428;21.162;2023-06-14T07:28:16;16.60;99.90
44886;DHT22;36669;51.428;21.162;2023-06-14T07:30:42;16.50;99.90
44886;DHT22;36669;51.428;21.162;2023-06-14T07:33:08;16.60;99.90
44886;DHT22;36669;51.428;21.162;2023-06-14T07:35:34;16.60;99.90
44886;DHT22;36669;51.428;21.162;2023-06-14T07:37:59;16.70;99.90
44886;DHT22;36669;51.428;21.162;2023-06-14T07:40:25;16.70;99.90
44886;DHT22;36669;51.428;21.162;2023-06-14T07:42:51;16.70;99.90
44886;DHT22;36669;51.428;21.162;2023-06-14T07:45:16;16.80;99.90
44886;DHT22;36669;51.428;21.162;2023-06-14T07:47:42;16.70;99.90
44886;DHT22;36669;51.428;21.162;2023-06-14T07:50:08;16.70;99.90
44886;DHT22;36669;51.428;21.162;2023-06-14T07:52:34;16.80;99.90
44886;DHT22;36669;51.428;21.162;2023-06-14T07:55:00;16.80;99.90
44886;DHT22;36669;51.428;21.162;2023-06-14T07:57:25;16.80;99.90
44886;DHT22;36669;51.428;21.162;2023-06-14T07:59:51;16.80;99.90
44886;DHT22;36669;51.428;21.162;2023-06-14T08:02:17;16.70;99.90
44886;DHT22;36669;51.428;21.162;2023-06-14T08:04:43;16.80;99.90
44886;DHT22;36669;51.428;21.162;2023-06-14T08:07:09;16.70;99.90
44886;DHT22;36669;51.428;21.162;2023-06-14T08:09:35;16.70;99.90
44886;DHT22;36669;51.428;21.162;2023-06-14T08:12:04;16.80;99.90
44886;DHT22;36669;51.428;21.162;2023-06-14T08:14:33;16.90;99.90
44886;DHT22;36669;51.428;21.162;2023-06-14T08:16:59;16.90;99.90
44886;DHT22;36669;51.428;21.162;2023-06-14T08:19:24;16.80;99.90
44886;DHT22;36669;51.428;21.162;2023-06-14T08:21:50;16.90;99.90
44886;DHT22;36669;51.428;21.162;2023-06-14T08:24:16;17.00;99.90
44886;DHT22;36669;51.428;21.162;2023-06-14T08:26:42;17.10;99.90
44886;DHT22;36669;51.428;21.162;2023-06-14T08:29:07;17.20;99.90
44886;DHT22;36669;51.428;21.162;2023-06-14T08:31:33;17.30;99.90
44886;DHT22;36669;51.428;21.162;2023-06-14T08:33:59;17.30;99.90
44886;DHT22;36669;51.428;21.162;2023-06-14T08:36:25;17.30;99.90
44886;DHT22;36669;51.428;21.162;2023-06-14T08:38:50;17.40;99.90
44886;DHT22;36669;51.428;21.162;2023-06-14T08:41:25;17.50;99.90
44886;DHT22;36669;51.428;21.162;2023-06-14T08:43:52;17.60;99.90
44886;DHT22;36669;51.428;21.162;2023-06-14T08:46:18;17.70;99.90
44886;DHT22;36669;51.428;21.162;2023-06-14T08:48:51;17.80;99.90
44886;DHT22;36669;51.428;21.162;2023-06-14T08:51:20;18.10;99.90
44886;DHT22;36669;51.428;21.162;2023-06-14T08:53:54;18.10;99.90
44886;DHT22;36669;51.428;21.162;2023-06-14T08:56:26;18.30;99.90
44886;DHT22;36669;51.428;21.162;2023-06-14T08:58:53;18.20;99.90
44886;DHT22;36669;51.428;21.162;2023-06-14T09:01:20;18.30;99.90
44886;DHT22;36669;51.428;21.162;2023-06-14T09:03:48;18.40;99.90
44886;DHT22;36669;51.428;21.162;2023-06-14T09:06:14;18.50;99.90
44886;DHT22;36669;51.428;21.162;2023-06-14T09:08:42;18.40;99.90
44886;DHT22;36669;51.428;21.162;2023-06-14T09:11:13;18.40;99.90
44886;DHT22;36669;51.428;21.162;2023-06-14T09:13:40;18.40;99.90
44886;DHT22;36669;51.428;21.162;2023-06-14T09:16:08;18.50;99.90
44886;DHT22;36669;51.428;21.162;2023-06-14T09:18:35;18.50;99.90
44886;DHT22;36669;51.428;21.162;2023-06-14T09:21:01;18.60;99.90
44886;DHT22;36669;51.428;21.162;2023-06-14T09:23:27;18.70;99.90
44886;DHT22;36669;51.428;21.162;2023-06-14T09:25:53;18.70;99.90
44886;DHT22;36669;51.428;21.162;2023-06-14T09:28:18;18.80;99.90
44886;DHT22;36669;51.428;21.162;2023-06-14T09:30:47;19.00;99.90
44886;DHT22;36669;51.428;21.162;2023-06-14T09:33:17;19.10;99.90
44886;DHT22;36669;51.428;21.162;2023-06-14T09:35:45;19.00;99.90
44886;DHT22;36669;51.428;21.162;2023-06-14T09:38:11;18.80;99.90
44886;DHT22;36669;51.428;21.162;2023-06-14T09:40:37;18.80;99.90
44886;DHT22;36669;51.428;21.162;2023-06-14T09:43:05;19.00;99.90
44886;DHT22;36669;51.428;21.162;2023-06-14T09:45:33;19.00;99.90
44886;DHT22;36669;51.428;21.162;2023-06-14T09:47:58;19.30;99.90
44886;DHT22;36669;51.428;21.162;2023-06-14T09:50:24;19.50;99.90
44886;DHT22;36669;51.428;21.162;2023-06-14T09:52:52;19.50;99.90
44886;DHT22;36669;51.428;21.162;2023-06-14T09:55:21;19.10;99.90
44886;DHT22;36669;51.428;21.162;2023-06-14T09:57:49;18.90;99.90
44886;DHT22;36669;51.428;21.162;2023-06-14T10:00:17;19.00;99.90
44886;DHT22;36669;51.428;21.162;2023-06-14T10:02:46;18.90;99.90
44886;DHT22;36669;51.428;21.162;2023-06-14T10:05:17;18.90;99.90
44886;DHT22;36669;51.428;21.162;2023-06-14T10:07:53;18.80;99.90
44886;DHT22;36669;51.428;21.162;2023-06-14T10:10:21;18.70;99.90
44886;DHT22;36669;51.428;21.162;2023-06-14T10:12:47;18.70;99.90
44886;DHT22;36669;51.428;21.162;2023-06-14T10:15:35;18.70;99.90
44886;DHT22;36669;51.428;21.162;2023-06-14T10:18:17;18.70;99.90
44886;DHT22;36669;51.428;21.162;2023-06-14T10:23:40;18.60;99.90
44886;DHT22;36669;51.428;21.162;2023-06-14T10:26:07;18.70;99.90
44886;DHT22;36669;51.428;21.162;2023-06-14T10:28:37;18.60;99.90
44886;DHT22;36669;51.428;21.162;2023-06-14T10:31:12;18.50;99.90
44886;DHT22;36669;51.428;21.162;2023-06-14T10:36:29;18.50;99.90
44886;DHT22;36669;51.428;21.162;2023-06-14T10:39:16;18.40;99.90
44886;DHT22;36669;51.428;21.162;2023-06-14T10:41:55;18.40;99.90
44886;DHT22;36669;51.428;21.162;2023-06-14T10:46:47;18.40;99.90
44886;DHT22;36669;51.428;21.162;2023-06-14T10:49:16;18.40;99.90
44886;DHT22;36669;51.428;21.162;2023-06-14T10:51:49;18.30;99.90
44886;DHT22;36669;51.428;21.162;2023-06-14T10:54:16;18.40;99.90
44886;DHT22;36669;51.428;21.162;2023-06-14T10:56:52;18.50;99.90
44886;DHT22;36669;51.428;21.162;2023-06-14T10:59:19;18.60;99.90
44886;DHT22;36669;51.428;21.162;2023-06-14T11:04:21;18.90;99.90
44886;DHT22;36669;51.428;21.162;2023-06-14T11:06:48;18.90;99.90
44886;DHT22;36669;51.428;21.162;2023-06-14T11:09:55;18.80;99.90
44886;DHT22;36669;51.428;21.162;2023-06-14T11:12:13;18.90;99.90
44886;DHT22;36669;51.428;21.162;2023-06-14T11:14:39;19.20;99.90
44886;DHT22;36669;51.428;21.162;2023-06-14T11:17:05;19.30;99.90
44886;DHT22;36669;51.428;21.162;2023-06-14T11:19:31;19.90;99.90
44886;DHT22;36669;51.428;21.162;2023-06-14T11:21:57;20.10;99.90
44886;DHT22;36669;51.428;21.162;2023-06-14T11:24:24;20.20;99.90
44886;DHT22;36669;51.428;21.162;2023-06-14T11:26:50;20.30;99.90
44886;DHT22;36669;51.428;21.162;2023-06-14T11:29:16;20.00;99.90
44886;DHT22;36669;51.428;21.162;2023-06-14T11:31:46;20.00;99.90
44886;DHT22;36669;51.428;21.162;2023-06-14T11:34:12;19.60;99.90
44886;DHT22;36669;51.428;21.162;2023-06-14T11:36:38;19.80;99.90
44886;DHT22;36669;51.428;21.162;2023-06-14T11:39:05;20.00;99.90
44886;DHT22;36669;51.428;21.162;2023-06-14T11:41:42;20.00;99.90
44886;DHT22;36669;51.428;21.162;2023-06-14T11:44:09;20.30;99.90
44886;DHT22;36669;51.428;21.162;2023-06-14T11:46:35;20.30;99.90
44886;DHT22;36669;51.428;21.162;2023-06-14T11:49:02;20.10;99.90
44886;DHT22;36669;51.428;21.162;2023-06-14T11:51:33;20.10;99.90
44886;DHT22;36669;51.428;21.162;2023-06-14T11:54:00;19.90;99.90
44886;DHT22;36669;51.428;21.162;2023-06-14T11:56:26;19.60;99.90
44886;DHT22;36669;51.428;21.162;2023-06-14T11:58:52;19.50;99.90
44886;DHT22;36669;51.428;21.162;2023-06-14T12:01:21;19.50;99.90
44886;DHT22;36669;51.428;21.162;2023-06-14T12:03:50;19.20;99.90
44886;DHT22;36669;51.428;21.162;2023-06-14T12:06:24;19.10;99.90
44886;DHT22;36669;51.428;21.162;2023-06-14T12:08:50;19.00;99.90
44886;DHT22;36669;51.428;21.162;2023-06-14T12:11:16;18.90;99.90
44886;DHT22;36669;51.428;21.162;2023-06-14T12:13:43;18.90;99.90
44886;DHT22;36669;51.428;21.162;2023-06-14T12:16:09;18.70;99.90
44886;DHT22;36669;51.428;21.162;2023-06-14T12:18:37;18.70;99.90
44886;DHT22;36669;51.428;21.162;2023-06-14T12:21:07;18.60;99.90
44886;DHT22;36669;51.428;21.162;2023-06-14T12:23:53;18.60;99.90
44886;DHT22;36669;51.428;21.162;2023-06-14T12:26:19;18.50;99.90
44886;DHT22;36669;51.428;21.162;2023-06-14T12:28:47;18.60;99.90
44886;DHT22;36669;51.428;21.162;2023-06-14T12:31:14;18.60;99.90
44886;DHT22;36669;51.428;21.162;2023-06-14T12:33:40;18.60;99.90
44886;DHT22;36669;51.428;21.162;2023-06-14T12:36:08;18.60;99.90
44886;DHT22;36669;51.428;21.162;2023-06-14T12:38:34;18.60;99.90
44886;DHT22;36669;51.428;21.162;2023-06-14T12:41:00;18.50;99.90
44886;DHT22;36669;51.428;21.162;2023-06-14T12:43:26;18.50;99.90
44886;DHT22;36669;51.428;21.162;2023-06-14T12:45:51;18.50;99.90
44886;DHT22;36669;51.428;21.162;2023-06-14T12:48:17;18.60;99.90
44886;DHT22;36669;51.428;21.162;2023-06-14T12:50:43;18.60;99.90
44886;DHT22;36669;51.428;21.162;2023-06-14T12:53:08;18.60;99.90
44886;DHT22;36669;51.428;21.162;2023-06-14T12:55:34;18.50;99.90
44886;DHT22;36669;51.428;21.162;2023-06-14T12:58:00;18.60;99.90
44886;DHT22;36669;51.428;21.162;2023-06-14T13:00:26;18.60;99.90
44886;DHT22;36669;51.428;21.162;2023-06-14T13:02:52;18.60;99.90
44886;DHT22;36669;51.428;21.162;2023-06-14T13:05:18;18.60;99.90
44886;DHT22;36669;51.428;21.162;2023-06-14T13:07:44;18.70;99.90
44886;DHT22;36669;51.428;21.162;2023-06-14T13:10:10;18.80;99.90
44886;DHT22;36669;51.428;21.162;2023-06-14T13:12:36;19.00;99.90
44886;DHT22;36669;51.428;21.162;2023-06-14T13:15:02;19.00;99.90
44886;DHT22;36669;51.428;21.162;2023-06-14T13:17:27;19.10;99.90
44886;DHT22;36669;51.428;21.162;2023-06-14T13:19:53;19.20;99.90
44886;DHT22;36669;51.428;21.162;2023-06-14T13:22:19;19.30;99.90
44886;DHT22;36669;51.428;21.162;2023-06-14T13:24:45;19.20;99.90
44886;DHT22;36669;51.428;21.162;2023-06-14T13:27:10;19.20;99.90
44886;DHT22;36669;51.428;21.162;2023-06-14T13:29:36;19.20;99.90
44886;DHT22;36669;51.428;21.162;2023-06-14T13:32:03;19.10;99.90
44886;DHT22;36669;51.428;21.162;2023-06-14T13:34:29;19.00;99.90
44886;DHT22;36669;51.428;21.162;2023-06-14T13:36:54;19.00;99.90
44886;DHT22;36669;51.428;21.162;2023-06-14T13:39:20;19.00;99.90
44886;DHT22;36669;51.428;21.162;2023-06-14T13:41:46;18.90;99.90
44886;DHT22;36669;51.428;21.162;2023-06-14T13:44:11;18.80;99.90
44886;DHT22;36669;51.428;21.162;2023-06-14T13:46:39;18.70;99.90
44886;DHT22;36669;51.428;21.162;2023-06-14T13:49:05;18.70;99.90
44886;DHT22;36669;51.428;21.162;2023-06-14T13:51:31;18.70;99.90
44886;DHT22;36669;51.428;21.162;2023-06-14T13:53:58;18.70;99.90
44886;DHT22;36669;51.428;21.162;2023-06-14T13:56:24;18.70;99.90
44886;DHT22;36669;51.428;21.162;2023-06-14T13:58:50;18.70;99.90
44886;DHT22;36669;51.428;21.162;2023-06-14T14:01:16;18.70;99.90
44886;DHT22;36669;51.428;21.162;2023-06-14T14:03:47;18.70;99.90
44886;DHT22;36669;51.428;21.162;2023-06-14T14:06:13;18.70;99.90
44886;DHT22;36669;51.428;21.162;2023-06-14T14:08:38;18.80;99.90
44886;DHT22;36669;51.428;21.162;2023-06-14T14:11:05;18.70;99.90
44886;DHT22;36669;51.428;21.162;2023-06-14T14:13:31;18.70;99.90
44886;DHT22;36669;51.428;21.162;2023-06-14T14:15:57;18.70;99.90
44886;DHT22;36669;51.428;21.162;2023-06-14T14:18:22;18.60;99.90
44886;DHT22;36669;51.428;21.162;2023-06-14T14:20:49;18.60;99.90
44886;DHT22;36669;51.428;21.162;2023-06-14T14:23:14;18.60;99.90
44886;DHT22;36669;51.428;21.162;2023-06-14T14:25:40;18.50;99.90
44886;DHT22;36669;51.428;21.162;2023-06-14T14:28:06;18.50;99.90
44886;DHT22;36669;51.428;21.162;2023-06-14T14:30:32;18.50;99.90
44886;DHT22;36669;51.428;21.162;2023-06-14T14:32:58;18.50;99.90
44886;DHT22;36669;51.428;21.162;2023-06-14T14:35:23;18.40;99.90
44886;DHT22;36669;51.428;21.162;2023-06-14T14:37:51;18.40;99.90
44886;DHT22;36669;51.428;21.162;2023-06-14T14:40:17;18.40;99.90
44886;DHT22;36669;51.428;21.162;2023-06-14T14:42:43;18.50;99.90
44886;DHT22;36669;51.428;21.162;2023-06-14T14:45:08;18.50;99.90
44886;DHT22;36669;51.428;21.162;2023-06-14T14:47:34;18.50;99.90
44886;DHT22;36669;51.428;21.162;2023-06-14T14:50:00;18.60;99.90
44886;DHT22;36669;51.428;21.162;2023-06-14T14:52:26;18.60;99.90
44886;DHT22;36669;51.428;21.162;2023-06-14T14:54:52;18.60;99.90
44886;DHT22;36669;51.428;21.162;2023-06-14T14:57:18;18.60;99.90
44886;DHT22;36669;51.428;21.162;2023-06-14T14:59:44;18.50;99.90
44886;DHT22;36669;51.428;21.162;2023-06-14T15:02:10;18.50;99.90
44886;DHT22;36669;51.428;21.162;2023-06-14T15:04:35;18.50;99.90
44886;DHT22;36669;51.428;21.162;2023-06-14T15:07:01;18.50;99.90
44886;DHT22;36669;51.428;21.162;2023-06-14T15:09:27;18.50;99.90
44886;DHT22;36669;51.428;21.162;2023-06-14T15:11:52;18.50;99.90
44886;DHT22;36669;51.428;21.162;2023-06-14T15:14:18;18.50;99.90
44886;DHT22;36669;51.428;21.162;2023-06-14T15:16:43;18.40;99.90
44886;DHT22;36669;51.428;21.162;2023-06-14T15:19:09;18.30;99.90
44886;DHT22;36669;51.428;21.162;2023-06-14T15:21:35;18.20;99.90
44886;DHT22;36669;51.428;21.162;2023-06-14T15:24:01;18.10;99.90
44886;DHT22;36669;51.428;21.162;2023-06-14T15:26:27;18.00;99.90